To NAV CANADA Home Page Login to a new session Search on AWWS site Feedback and Comments Disclaimer Vers la page française équivalente Tips FAQ What's new on the site To the Forecasts and Observations / NOTAM section To "File a Flight Plan" website Publications and other links Update of the User's profile FIC Telephone Numbers My Weather Data Folder Route Weather Data Regional Weather Data Local Weather Data To the Forecasts and Observations / NOTAM section
Request Generated 02/23/2017 at 20:46:53 UTC . Weather information available at that time is displayed.

METAR/TAF

KUUJJUAQ/QC    

METAR CYVP 232000Z 36010KT 15SM SCT015 M22/M26 A2994 RMK SC4 SLP144=
METAR CYVP 231900Z 01008KT 320V020 15SM BKN015 M20/M24 A2993 RMK SC5
SLP141=
SPECI CYVP 231817Z 34009KT 15SM BKN015 M20/M24 A2993 RMK SC7 SLP141=
METAR CYVP 231800Z 34009KT 15SM BKN015 M20/M23 A2992 RMK SC7 INTMT
-SN SLP140=

TAF AMD CYVP 232039Z 2320/2406 36010KT P6SM SCT015
RMK NXT FCST BY 240000Z=
Your time UTC time
Weather data provided by Environment Canada and NAV CANADA